Time;durP1;ratioP1;P1;durP2;ratioP2;P2;SDS_P1;SDS_P2;PMS_P1;PMS_P2;Temp;Humidity;BMP_temperature;BMP_pressure;BME280_temperature;BME280_humidity;BME280_pressure;Samples;Min_cycle;Max_cycle;Signal;HPM_P1;HPM_P2
2021/10/21 00:00:55;;;;;;;2.38;1.50;;;;;;;;;;4647028;30;34184;-66
2021/10/21 00:03:22;;;;;;;3.15;1.60;;;;;;;;;;4678861;30;32363;-67
2021/10/21 00:05:48;;;;;;;4.30;1.85;;;;;;;;;;4680293;30;32516;-66
2021/10/21 00:08:15;;;;;;;2.40;1.65;;;;;;;;;;4682438;30;32543;-66
2021/10/21 00:10:45;;;;;;;3.75;1.70;;;;;;;;;;4679436;30;32456;-67
2021/10/21 00:13:12;;;;;;;2.35;1.17;;;;;;;;;;4681728;30;34499;-67
2021/10/21 00:15:39;;;;;;;2.80;1.63;;;;;;;;;;4681221;30;32404;-66
2021/10/21 00:18:07;;;;;;;2.53;1.83;;;;;;;;;;4684383;30;32472;-67
2021/10/21 00:20:34;;;;;;;2.38;1.98;;;;;;;;;;4688011;30;32422;-67
2021/10/21 00:23:00;;;;;;;2.13;1.52;;;;;;;;;;4685196;30;35128;-66
2021/10/21 00:25:27;;;;;;;2.63;1.55;;;;;;;;;;4686255;30;32377;-66
2021/10/21 00:27:54;;;;;;;2.88;1.83;;;;;;;;;;4683745;30;32464;-66
2021/10/21 00:30:21;;;;;;;2.00;1.35;;;;;;;;;;4672453;30;32465;-66
2021/10/21 00:32:47;;;;;;;1.88;1.67;;;;;;;;;;4679467;30;32225;-66
2021/10/21 00:35:15;;;;;;;1.80;1.40;;;;;;;;;;4670549;30;34122;-65
2021/10/21 00:37:42;;;;;;;2.10;1.48;;;;;;;;;;4675885;30;32211;-66
2021/10/21 00:40:10;;;;;;;2.60;1.83;;;;;;;;;;4670476;30;32343;-66
2021/10/21 00:42:37;;;;;;;2.22;1.42;;;;;;;;;;4672097;30;32263;-67
2021/10/21 00:45:06;;;;;;;1.75;1.48;;;;;;;;;;4670591;30;34055;-66
2021/10/21 00:47:32;;;;;;;2.42;1.30;;;;;;;;;;4675904;30;32911;-66
2021/10/21 00:49:59;;;;;;;1.58;1.48;;;;;;;;;;4670852;30;32401;-65
2021/10/21 00:52:27;;;;;;;2.05;1.33;;;;;;;;;;4671720;30;32968;-67
2021/10/21 00:54:54;;;;;;;1.52;1.13;;;;;;;;;;4670668;30;32405;-64
2021/10/21 00:57:21;;;;;;;1.60;1.38;;;;;;;;;;4675717;30;32381;-64
2021/10/21 00:59:48;;;;;;;1.60;1.48;;;;;;;;;;4670229;30;32365;-64
2021/10/21 01:02:15;;;;;;;1.75;1.25;;;;;;;;;;4672975;30;32477;-67
2021/10/21 01:04:42;;;;;;;2.13;1.48;;;;;;;;;;4650517;30;32442;-67
2021/10/21 01:07:08;;;;;;;1.42;1.33;;;;;;;;;;4670941;30;34119;-63
2021/10/21 01:09:38;;;;;;;1.63;1.20;;;;;;;;;;4670171;30;32597;-65
2021/10/21 01:12:05;;;;;;;1.55;1.27;;;;;;;;;;4662544;30;32237;-67
2021/10/21 01:14:31;;;;;;;;;;;;;;;;;;4666036;30;32558;-64
2021/10/21 01:16:58;;;;;;;2.25;1.33;;;;;;;;;;4671582;30;32360;-64
2021/10/21 01:19:25;;;;;;;1.42;1.05;;;;;;;;;;4670157;30;32310;-63
2021/10/21 01:21:55;;;;;;;1.85;1.38;;;;;;;;;;4671521;30;32515;-64
2021/10/21 01:24:24;;;;;;;1.67;1.02;;;;;;;;;;4669927;30;32377;-64
2021/10/21 01:26:52;;;;;;;1.52;1.10;;;;;;;;;;4674803;30;32279;-64
2021/10/21 01:29:21;;;;;;;1.35;0.93;;;;;;;;;;4669270;30;33975;-64
2021/10/21 01:31:49;;;;;;;1.52;0.93;;;;;;;;;;4668725;30;32463;-65
2021/10/21 01:34:15;;;;;;;;;;;;;;;;;;4669750;30;32397;-64
2021/10/21 01:36:44;;;;;;;1.83;0.98;;;;;;;;;;4675120;30;32287;-64
2021/10/21 01:39:13;;;;;;;1.85;1.23;;;;;;;;;;4669985;30;32420;-65
2021/10/21 01:41:39;;;;;;;1.52;1.20;;;;;;;;;;4670475;30;32617;-65
2021/10/21 01:44:07;;;;;;;1.30;1.20;;;;;;;;;;4669708;30;32533;-64
2021/10/21 01:46:34;;;;;;;1.23;1.13;;;;;;;;;;4675312;30;32458;-66
2021/10/21 01:49:01;;;;;;;0.90;0.80;;;;;;;;;;4669881;30;32242;-66
2021/10/21 01:51:27;;;;;;;1.42;1.33;;;;;;;;;;4670550;30;35628;-65
2021/10/21 01:53:54;;;;;;;1.30;1.20;;;;;;;;;;4669746;30;32324;-65
2021/10/21 01:56:23;;;;;;;1.42;1.27;;;;;;;;;;4674721;30;32209;-66
2021/10/21 01:58:50;;;;;;;1.50;1.17;;;;;;;;;;4663206;30;32427;-67
2021/10/21 02:01:16;;;;;;;1.58;1.40;;;;;;;;;;4660336;30;32604;-65
2021/10/21 02:03:43;;;;;;;1.60;0.90;;;;;;;;;;4672577;30;32333;-65
2021/10/21 02:06:10;;;;;;;1.70;1.50;;;;;;;;;;4672751;30;33877;-65
2021/10/21 02:08:37;;;;;;;2.13;1.25;;;;;;;;;;4686613;30;32565;-64
2021/10/21 02:11:03;;;;;;;1.83;0.95;;;;;;;;;;4686501;30;32377;-65
2021/10/21 02:13:32;;;;;;;1.42;1.33;;;;;;;;;;4684087;30;35872;-65
2021/10/21 02:15:58;;;;;;;3.15;1.75;;;;;;;;;;4675950;30;32374;-65
2021/10/21 02:18:27;;;;;;;1.40;1.23;;;;;;;;;;4669589;30;32435;-65
2021/10/21 02:20:54;;;;;;;1.80;1.48;;;;;;;;;;4652846;25;32580;-66
2021/10/21 02:23:20;;;;;;;1.75;1.23;;;;;;;;;;4647678;30;32461;-67
2021/10/21 02:25:47;;;;;;;1.48;1.33;;;;;;;;;;4649160;30;32285;-66
2021/10/21 02:28:14;;;;;;;1.60;1.30;;;;;;;;;;4636251;30;32386;-67
2021/10/21 02:30:42;;;;;;;2.15;1.60;;;;;;;;;;4647877;30;32375;-65
2021/10/21 02:33:09;;;;;;;2.17;1.00;;;;;;;;;;4646106;30;32341;-65
2021/10/21 02:35:35;;;;;;;2.08;1.20;;;;;;;;;;4649281;30;34748;-66
2021/10/21 02:38:02;;;;;;;3.65;1.48;;;;;;;;;;4648379;30;32515;-65
2021/10/21 02:40:29;;;;;;;1.85;1.52;;;;;;;;;;4640133;30;32395;-65
2021/10/21 02:42:55;;;;;;;2.35;1.13;;;;;;;;;;4644622;30;32335;-66
2021/10/21 02:45:22;;;;;;;1.35;1.25;;;;;;;;;;4651286;30;32219;-66
2021/10/21 02:47:50;;;;;;;1.35;1.23;;;;;;;;;;4634850;30;32363;-66
2021/10/21 02:50:17;;;;;;;1.40;1.15;;;;;;;;;;4634212;30;32346;-64
2021/10/21 02:52:43;;;;;;;2.00;1.20;;;;;;;;;;4633538;30;32739;-64
2021/10/21 02:55:10;;;;;;;1.15;0.93;;;;;;;;;;4631861;30;32262;-65
2021/10/21 02:57:37;;;;;;;1.30;1.00;;;;;;;;;;4633021;30;35585;-65
2021/10/21 03:00:05;;;;;;;1.48;0.93;;;;;;;;;;4631505;30;32562;-66
2021/10/21 03:02:32;;;;;;;1.55;1.33;;;;;;;;;;4638867;30;32461;-67
2021/10/21 03:05:00;;;;;;;1.83;1.00;;;;;;;;;;4651640;30;32626;-67
2021/10/21 03:07:27;;;;;;;1.88;1.33;;;;;;;;;;4631515;30;34871;-66
2021/10/21 03:09:53;;;;;;;8.05;1.42;;;;;;;;;;4634006;30;33079;-66
2021/10/21 03:12:20;;;;;;;4.13;1.45;;;;;;;;;;4635920;30;32350;-66
2021/10/21 03:14:46;;;;;;;2.08;1.42;;;;;;;;;;4634219;30;32367;-67
2021/10/21 03:17:14;;;;;;;3.35;1.60;;;;;;;;;;4637432;30;32511;-67
2021/10/21 03:19:40;;;;;;;1.75;1.40;;;;;;;;;;4632881;30;34023;-66
2021/10/21 03:22:08;;;;;;;1.52;1.42;;;;;;;;;;4617990;30;32975;-67
2021/10/21 03:24:36;;;;;;;3.90;1.33;;;;;;;;;;4635304;30;32333;-66
2021/10/21 03:27:03;;;;;;;1.52;1.15;;;;;;;;;;4639464;30;32627;-66
2021/10/21 03:29:30;;;;;;;1.20;1.00;;;;;;;;;;4641994;30;34127;-67
2021/10/21 03:31:56;;;;;;;1.60;1.20;;;;;;;;;;4634750;30;32451;-67
2021/10/21 03:34:23;;;;;;;1.85;1.55;;;;;;;;;;4633044;30;33066;-68
2021/10/21 03:36:49;;;;;;;5.75;1.40;;;;;;;;;;4633084;30;32731;-68
2021/10/21 03:39:17;;;;;;;1.30;1.00;;;;;;;;;;4635840;30;32496;-67
2021/10/21 03:41:44;;;;;;;4.63;1.55;;;;;;;;;;4636861;30;34548;-67
2021/10/21 03:44:11;;;;;;;1.83;1.30;;;;;;;;;;4636364;30;32367;-67
2021/10/21 03:46:39;;;;;;;1.40;1.13;;;;;;;;;;4639417;30;32598;-65
2021/10/21 03:49:06;;;;;;;2.30;1.58;;;;;;;;;;4636265;30;32350;-66
2021/10/21 03:51:32;;;;;;;1.45;1.10;;;;;;;;;;4637199;30;34173;-67
2021/10/21 03:53:59;;;;;;;2.30;1.58;;;;;;;;;;4634399;30;32407;-67
2021/10/21 03:56:27;;;;;;;1.80;1.45;;;;;;;;;;4639606;30;32484;-66
2021/10/21 03:58:54;;;;;;;1.48;1.15;;;;;;;;;;4632488;30;32450;-67
2021/10/21 04:01:21;;;;;;;;;;;;;;;;;;4632794;30;32582;-67
2021/10/21 04:03:47;;;;;;;2.35;1.42;;;;;;;;;;4633108;30;34405;-67
2021/10/21 04:06:14;;;;;;;1.42;1.33;;;;;;;;;;4629971;30;32825;-68
2021/10/21 04:08:41;;;;;;;1.92;1.27;;;;;;;;;;4634765;30;32461;-66
2021/10/21 04:11:07;;;;;;;1.60;1.42;;;;;;;;;;4629136;30;33494;-67
2021/10/21 04:13:36;;;;;;;1.95;1.75;;;;;;;;;;4636656;30;34457;-66
2021/10/21 04:16:02;;;;;;;1.45;1.30;;;;;;;;;;4640695;30;32367;-66
2021/10/21 04:18:29;;;;;;;2.03;1.25;;;;;;;;;;4636852;30;32218;-66
2021/10/21 04:20:56;;;;;;;2.00;1.77;;;;;;;;;;4635043;30;32491;-66
2021/10/21 04:23:22;;;;;;;1.92;1.33;;;;;;;;;;4648274;30;32319;-66
2021/10/21 04:25:49;;;;;;;1.65;1.50;;;;;;;;;;4649684;30;34139;-66
2021/10/21 04:28:16;;;;;;;1.65;1.45;;;;;;;;;;4649865;30;32465;-67
2021/10/21 04:30:44;;;;;;;1.88;1.52;;;;;;;;;;4635772;30;32510;-66
2021/10/21 04:33:11;;;;;;;2.03;1.38;;;;;;;;;;4637556;30;32405;-67
2021/10/21 04:35:38;;;;;;;1.63;1.52;;;;;;;;;;4628283;30;35357;-67
2021/10/21 04:38:05;;;;;;;1.45;1.35;;;;;;;;;;4648365;30;32259;-67
2021/10/21 04:40:31;;;;;;;1.95;1.63;;;;;;;;;;4650746;30;32467;-67
2021/10/21 04:42:59;;;;;;;2.33;1.13;;;;;;;;;;4635837;30;32902;-68
2021/10/21 04:45:25;;;;;;;1.85;1.25;;;;;;;;;;4635453;30;32390;-68
2021/10/21 04:47:56;;;;;;;1.92;1.73;;;;;;;;;;4641769;30;34809;-68
2021/10/21 04:50:24;;;;;;;1.98;1.73;;;;;;;;;;4652093;30;32177;-68
2021/10/21 04:52:53;;;;;;;2.10;1.55;;;;;;;;;;4644491;30;32355;-68
2021/10/21 04:55:21;;;;;;;2.20;2.00;;;;;;;;;;4644019;30;32492;-68
2021/10/21 04:57:47;;;;;;;;;;;;;;;;;;4649851;30;33940;-68
2021/10/21 05:00:14;;;;;;;1.88;1.55;;;;;;;;;;4651140;30;32414;-68
2021/10/21 05:02:41;;;;;;;3.17;1.90;;;;;;;;;;4637436;30;32731;-68
2021/10/21 05:05:09;;;;;;;3.25;1.98;;;;;;;;;;4634477;30;32556;-67
2021/10/21 05:07:36;;;;;;;2.92;1.60;;;;;;;;;;4635094;30;32424;-68
2021/10/21 05:10:04;;;;;;;3.47;2.20;;;;;;;;;;4635410;30;34338;-67
2021/10/21 05:12:31;;;;;;;3.38;2.38;;;;;;;;;;4639733;30;32476;-68
2021/10/21 05:14:57;;;;;;;3.88;2.40;;;;;;;;;;4635113;30;32392;-67
2021/10/21 05:17:24;;;;;;;3.72;2.08;;;;;;;;;;4640028;30;33214;-69
2021/10/21 05:19:51;;;;;;;3.55;2.55;;;;;;;;;;4630985;30;35686;-67
2021/10/21 05:22:19;;;;;;;2.28;2.03;;;;;;;;;;4625424;30;32387;-65
2021/10/21 05:24:46;;;;;;;2.83;2.13;;;;;;;;;;4635318;30;32455;-64
2021/10/21 05:27:13;;;;;;;3.40;2.22;;;;;;;;;;4630374;30;32940;-64
2021/10/21 05:29:39;;;;;;;4.03;2.42;;;;;;;;;;4641385;30;32605;-64
2021/10/21 05:32:07;;;;;;;3.08;2.58;;;;;;;;;;4650374;30;35565;-67
2021/10/21 05:34:33;;;;;;;;;;;;;;;;;;4652709;30;32405;-66
2021/10/21 05:37:01;;;;;;;6.25;2.50;;;;;;;;;;4645673;30;32379;-66
2021/10/21 05:39:30;;;;;;;3.22;2.72;;;;;;;;;;4652385;30;32457;-68
2021/10/21 05:41:57;;;;;;;4.80;2.15;;;;;;;;;;4649798;30;34780;-64
2021/10/21 05:44:23;;;;;;;;;;;;;;;;;;4645898;30;32642;-65
2021/10/21 05:46:50;;;;;;;;;;;;;;;;;;4637088;30;32577;-65
2021/10/21 05:49:17;;;;;;;5.78;2.42;;;;;;;;;;4634799;30;32398;-64
2021/10/21 05:51:43;;;;;;;6.18;2.47;;;;;;;;;;4635785;30;32333;-64
2021/10/21 05:54:10;;;;;;;3.40;2.38;;;;;;;;;;4637353;30;35724;-65
2021/10/21 05:56:38;;;;;;;4.78;3.03;;;;;;;;;;4644133;30;32425;-65
2021/10/21 05:59:05;;;;;;;4.05;2.35;;;;;;;;;;4641827;30;32622;-64
2021/10/21 06:01:31;;;;;;;3.88;2.25;;;;;;;;;;4637116;30;32210;-66
2021/10/21 06:03:58;;;;;;;4.47;2.17;;;;;;;;;;4650680;30;35578;-66
2021/10/21 06:06:25;;;;;;;3.45;2.00;;;;;;;;;;4642528;30;32603;-66
2021/10/21 06:08:51;;;;;;;4.10;2.05;;;;;;;;;;4633441;30;32598;-66
2021/10/21 06:11:18;;;;;;;2.50;2.15;;;;;;;;;;4634632;30;33063;-64
2021/10/21 06:13:46;;;;;;;2.50;1.90;;;;;;;;;;4634650;30;32402;-65
2021/10/21 06:16:13;;;;;;;2.50;2.13;;;;;;;;;;4632955;30;34224;-65
2021/10/21 06:18:39;;;;;;;3.15;1.67;;;;;;;;;;4651086;30;32464;-66
2021/10/21 06:21:07;;;;;;;2.42;2.22;;;;;;;;;;4639196;30;32346;-67
2021/10/21 06:23:33;;;;;;;2.72;1.60;;;;;;;;;;4647228;30;32229;-68
2021/10/21 06:26:00;;;;;;;3.10;1.98;;;;;;;;;;4648230;30;35498;-66
2021/10/21 06:28:27;;;;;;;3.00;2.13;;;;;;;;;;4644576;30;32503;-67
2021/10/21 06:30:55;;;;;;;3.03;1.60;;;;;;;;;;4649583;30;32628;-71
2021/10/21 06:33:22;;;;;;;5.00;1.98;;;;;;;;;;4637982;30;32370;-66
2021/10/21 06:35:49;;;;;;;2.53;1.60;;;;;;;;;;4631045;30;32414;-68
2021/10/21 06:38:16;;;;;;;2.58;1.42;;;;;;;;;;4640041;30;35096;-66
2021/10/21 06:40:42;;;;;;;3.15;2.00;;;;;;;;;;4641900;30;32404;-65
2021/10/21 06:43:09;;;;;;;2.28;1.60;;;;;;;;;;4640524;30;33702;-65
2021/10/21 06:45:36;;;;;;;2.35;2.10;;;;;;;;;;4633572;30;32501;-69
2021/10/21 06:48:04;;;;;;;2.38;1.92;;;;;;;;;;4637839;30;35460;-66
2021/10/21 06:50:31;;;;;;;3.05;1.88;;;;;;;;;;4634048;30;32682;-66
2021/10/21 06:52:58;;;;;;;2.25;1.83;;;;;;;;;;4635418;30;32335;-66
2021/10/21 06:55:25;;;;;;;3.28;1.88;;;;;;;;;;4632622;30;32621;-64
2021/10/21 06:57:53;;;;;;;2.25;1.70;;;;;;;;;;4632832;30;32515;-64
2021/10/21 07:00:20;;;;;;;2.17;1.77;;;;;;;;;;4632764;30;34059;-66
2021/10/21 07:02:48;;;;;;;1.98;1.67;;;;;;;;;;4634058;30;32404;-68
2021/10/21 07:05:16;;;;;;;1.80;1.35;;;;;;;;;;4631248;30;32479;-66
2021/10/21 07:07:44;;;;;;;2.03;1.40;;;;;;;;;;4632605;30;32965;-65
2021/10/21 07:10:11;;;;;;;3.05;1.75;;;;;;;;;;4630391;30;34184;-64
2021/10/21 07:12:39;;;;;;;2.95;2.10;;;;;;;;;;4636303;30;32491;-65
2021/10/21 07:15:08;;;;;;;2.28;1.42;;;;;;;;;;4636340;30;32278;-68
2021/10/21 07:17:35;;;;;;;1.52;1.25;;;;;;;;;;4635542;30;32930;-66
2021/10/21 07:20:03;;;;;;;2.40;1.73;;;;;;;;;;4633771;30;32899;-66
2021/10/21 07:22:31;;;;;;;2.38;1.67;;;;;;;;;;4637122;30;35476;-66
2021/10/21 07:24:57;;;;;;;2.75;1.35;;;;;;;;;;4637306;30;32536;-66
2021/10/21 07:27:24;;;;;;;2.53;1.27;;;;;;;;;;4639936;30;32578;-65
2021/10/21 07:29:51;;;;;;;3.35;1.90;;;;;;;;;;4626306;30;32417;-67
2021/10/21 07:32:17;;;;;;;1.92;1.55;;;;;;;;;;4638572;30;34853;-65
2021/10/21 07:34:44;;;;;;;2.22;1.75;;;;;;;;;;4628811;30;32397;-65
2021/10/21 07:37:12;;;;;;;2.78;1.50;;;;;;;;;;4624836;30;32734;-66
2021/10/21 07:39:41;;;;;;;1.95;1.67;;;;;;;;;;4628582;30;32497;-64
2021/10/21 07:42:09;;;;;;;2.80;1.17;;;;;;;;;;4631118;30;32331;-64
2021/10/21 07:44:37;;;;;;;2.42;1.83;;;;;;;;;;4638827;30;34139;-64
2021/10/21 07:47:04;;;;;;;3.17;1.40;;;;;;;;;;4639520;30;32450;-63
2021/10/21 07:49:31;;;;;;;2.08;1.73;;;;;;;;;;4636442;30;32559;-62
2021/10/21 07:51:59;;;;;;;2.47;1.33;;;;;;;;;;4636856;30;32354;-66
2021/10/21 07:54:29;;;;;;;1.77;1.52;;;;;;;;;;4639006;30;35581;-64
2021/10/21 07:56:57;;;;;;;2.80;2.03;;;;;;;;;;4639256;30;32326;-65
2021/10/21 07:59:25;;;;;;;3.10;1.65;;;;;;;;;;4633479;30;32910;-66
2021/10/21 08:01:51;;;;;;;2.10;1.73;;;;;;;;;;4635819;30;32750;-64
2021/10/21 08:04:18;;;;;;;2.33;1.65;;;;;;;;;;4634717;30;32477;-63
2021/10/21 08:06:46;;;;;;;2.65;1.95;;;;;;;;;;4638126;30;35673;-64
2021/10/21 08:09:13;;;;;;;3.00;2.15;;;;;;;;;;4635759;30;32394;-64
2021/10/21 08:11:39;;;;;;;2.40;1.75;;;;;;;;;;4634402;30;32612;-63
2021/10/21 08:14:09;;;;;;;2.20;1.48;;;;;;;;;;4636678;30;32594;-65
2021/10/21 08:16:36;;;;;;;3.65;2.38;;;;;;;;;;4632508;30;35532;-67
2021/10/21 08:19:02;;;;;;;4.75;1.83;;;;;;;;;;4630852;30;32607;-63
2021/10/21 08:21:30;;;;;;;2.85;2.25;;;;;;;;;;4630780;30;32659;-66
2021/10/21 08:23:58;;;;;;;3.17;2.42;;;;;;;;;;4630776;30;32872;-64
2021/10/21 08:26:26;;;;;;;3.88;2.42;;;;;;;;;;4640885;30;32841;-64
2021/10/21 08:28:52;;;;;;;7.47;2.38;;;;;;;;;;4632028;30;34391;-65
2021/10/21 08:31:21;;;;;;;3.83;2.85;;;;;;;;;;4634436;30;32353;-64
2021/10/21 08:33:48;;;;;;;3.53;2.50;;;;;;;;;;4634774;30;32515;-65
2021/10/21 08:36:17;;;;;;;3.22;2.20;;;;;;;;;;4631148;30;32474;-64
2021/10/21 08:38:44;;;;;;;4.30;3.25;;;;;;;;;;4634542;30;35102;-66
2021/10/21 08:41:12;;;;;;;3.95;2.88;;;;;;;;;;4636206;30;32427;-63
2021/10/21 08:43:38;;;;;;;4.38;2.92;;;;;;;;;;4634939;30;32543;-64
2021/10/21 08:46:05;;;;;;;4.85;3.05;;;;;;;;;;4632294;30;32597;-65
2021/10/21 08:48:35;;;;;;;4.40;3.08;;;;;;;;;;4640838;30;32742;-63
2021/10/21 08:51:05;;;;;;;4.38;3.03;;;;;;;;;;4633516;30;35202;-63
2021/10/21 08:53:32;;;;;;;5.20;3.33;;;;;;;;;;4639032;30;32861;-64
2021/10/21 08:55:59;;;;;;;4.63;2.65;;;;;;;;;;4634443;30;32442;-64
2021/10/21 08:58:27;;;;;;;6.45;2.80;;;;;;;;;;4634211;30;32687;-64
2021/10/21 09:01:02;;;;;;;4.50;3.20;;;;;;;;;;4634570;30;35956;-64
2021/10/21 09:09:05;;;;;;;3.58;2.63;;;;;;;;;;4633240;30;32542;-65
2021/10/21 09:11:32;;;;;;;3.10;2.42;;;;;;;;;;4637359;30;32474;-64
2021/10/21 09:14:10;;;;;;;4.63;2.53;;;;;;;;;;4633607;30;35450;-63
2021/10/21 09:16:39;;;;;;;4.22;2.40;;;;;;;;;;4637240;30;32484;-63
2021/10/21 09:19:09;;;;;;;4.13;2.28;;;;;;;;;;4635272;30;32529;-63
2021/10/21 09:21:37;;;;;;;3.53;1.92;;;;;;;;;;4640876;30;32497;-64
2021/10/21 09:24:23;;;;;;;3.45;2.25;;;;;;;;;;4636267;30;34208;-63
2021/10/21 09:27:06;;;;;;;2.53;1.85;;;;;;;;;;4623438;30;32675;-63
2021/10/21 09:29:35;;;;;;;3.10;2.00;;;;;;;;;;4637673;30;32549;-64
2021/10/21 09:32:13;;;;;;;2.63;2.30;;;;;;;;;;4632581;30;32512;-67
2021/10/21 09:34:50;;;;;;;2.90;1.70;;;;;;;;;;4636926;30;32506;-64
2021/10/21 09:37:21;;;;;;;2.30;2.00;;;;;;;;;;4635175;30;35509;-65
2021/10/21 09:39:51;;;;;;;2.50;1.70;;;;;;;;;;4633969;30;32615;-62
2021/10/21 09:42:19;;;;;;;2.65;1.83;;;;;;;;;;4634630;30;32492;-64
2021/10/21 09:44:46;;;;;;;1.80;1.45;;;;;;;;;;4634041;30;32338;-66
2021/10/21 09:47:19;;;;;;;4.50;1.77;;;;;;;;;;4634592;30;35207;-65
2021/10/21 09:49:56;;;;;;;3.92;1.98;;;;;;;;;;4628206;30;32484;-65
2021/10/21 09:52:24;;;;;;;3.58;2.40;;;;;;;;;;4634615;30;32578;-68
2021/10/21 09:54:51;;;;;;;3.05;1.85;;;;;;;;;;4640724;30;32609;-67
2021/10/21 09:57:19;;;;;;;2.65;2.25;;;;;;;;;;4636296;30;32536;-64
2021/10/21 10:00:01;;;;;;;;;;;;;;;;;;4641182;30;35739;-65
2021/10/21 10:02:32;;;;;;;3.15;1.98;;;;;;;;;;4627582;30;32568;-68
2021/10/21 10:05:07;;;;;;;2.33;1.58;;;;;;;;;;4634132;30;32395;-64
2021/10/21 10:07:36;;;;;;;3.13;1.77;;;;;;;;;;4634969;30;32448;-65
2021/10/21 10:10:04;;;;;;;3.03;1.60;;;;;;;;;;4628545;30;34731;-67
2021/10/21 10:12:35;;;;;;;2.97;1.80;;;;;;;;;;4641967;30;32459;-65
2021/10/21 10:15:03;;;;;;;2.28;1.75;;;;;;;;;;4635694;30;32402;-65
2021/10/21 10:17:30;;;;;;;1.85;1.30;;;;;;;;;;4639140;30;32496;-64
2021/10/21 10:19:57;;;;;;;2.17;1.60;;;;;;;;;;4647292;30;32779;-65
2021/10/21 10:22:29;;;;;;;2.65;1.77;;;;;;;;;;4646533;30;34053;-63
2021/10/21 10:24:59;;;;;;;2.67;1.52;;;;;;;;;;4635298;30;32598;-65
2021/10/21 10:27:29;;;;;;;2.72;1.60;;;;;;;;;;4633812;30;33280;-64
2021/10/21 10:29:58;;;;;;;2.67;2.05;;;;;;;;;;4632709;30;32275;-63
2021/10/21 10:32:41;;;;;;;3.00;2.25;;;;;;;;;;4636054;30;34876;-64
2021/10/21 10:35:10;;;;;;;2.95;1.92;;;;;;;;;;4632129;30;32843;-67
2021/10/21 10:37:55;;;;;;;3.22;1.70;;;;;;;;;;4638391;30;32473;-64
2021/10/21 10:40:47;;;;;;;2.88;2.15;;;;;;;;;;4635091;30;32562;-64
2021/10/21 10:43:16;;;;;;;2.97;1.75;;;;;;;;;;4619797;30;32743;-66
2021/10/21 10:45:49;;;;;;;2.88;1.83;;;;;;;;;;4634899;30;35129;-66
2021/10/21 10:49:01;;;;;;;2.65;1.80;;;;;;;;;;4635287;30;32707;-65
2021/10/21 10:51:55;;;;;;;3.00;1.98;;;;;;;;;;4633403;30;32408;-67
2021/10/21 10:55:01;;;;;;;3.47;1.83;;;;;;;;;;4638372;30;32814;-66
2021/10/21 10:57:59;;;;;;;3.83;2.00;;;;;;;;;;4630255;30;35639;-64
2021/10/21 11:00:47;;;;;;;5.28;2.13;;;;;;;;;;4638137;30;32572;-65
2021/10/21 11:03:15;;;;;;;4.13;1.88;;;;;;;;;;4635357;30;32550;-65
2021/10/21 11:05:56;;;;;;;3.83;2.60;;;;;;;;;;4636990;30;32491;-65
2021/10/21 11:08:51;;;;;;;3.03;2.13;;;;;;;;;;4638241;30;32540;-65
2021/10/21 11:11:49;;;;;;;3.88;2.58;;;;;;;;;;4634500;30;34743;-62
2021/10/21 11:14:18;;;;;;;5.25;2.47;;;;;;;;;;4633985;30;32482;-64
2021/10/21 11:16:48;;;;;;;4.35;2.85;;;;;;;;;;4644912;30;32289;-66
2021/10/21 11:19:46;;;;;;;3.78;2.70;;;;;;;;;;4644588;30;32313;-66
2021/10/21 11:22:40;;;;;;;4.38;2.50;;;;;;;;;;4631541;30;34757;-63
2021/10/21 11:25:11;;;;;;;4.07;2.47;;;;;;;;;;4639959;30;32523;-64
2021/10/21 11:27:42;;;;;;;5.63;3.08;;;;;;;;;;4640459;30;32422;-64
2021/10/21 11:30:18;;;;;;;4.57;2.95;;;;;;;;;;4636895;30;32427;-65
2021/10/21 11:32:46;;;;;;;4.07;3.03;;;;;;;;;;4642002;30;32366;-66
2021/10/21 11:35:18;;;;;;;3.47;2.45;;;;;;;;;;4645760;30;32261;-64
2021/10/21 11:37:48;;;;;;;5.50;2.90;;;;;;;;;;4635551;30;32669;-66
2021/10/21 11:40:26;;;;;;;5.28;3.38;;;;;;;;;;4641017;30;32240;-64
2021/10/21 11:42:57;;;;;;;4.43;2.65;;;;;;;;;;4643764;30;32503;-66
2021/10/21 11:45:32;;;;;;;5.55;3.42;;;;;;;;;;4633334;30;34066;-64
2021/10/21 11:48:02;;;;;;;5.32;3.22;;;;;;;;;;4638926;30;32445;-66
2021/10/21 11:50:38;;;;;;;4.40;3.13;;;;;;;;;;4646870;30;32235;-67
2021/10/21 11:53:07;;;;;;;5.40;3.15;;;;;;;;;;4638488;30;32464;-64
2021/10/21 11:55:34;;;;;;;4.65;3.05;;;;;;;;;;4639323;30;32503;-67
2021/10/21 11:58:12;;;;;;;4.72;3.05;;;;;;;;;;4636532;30;32516;-64
2021/10/21 12:00:40;;;;;;;4.82;2.85;;;;;;;;;;4639386;30;32514;-65
2021/10/21 12:03:06;;;;;;;6.68;3.05;;;;;;;;;;4649268;30;32401;-67
2021/10/21 12:05:40;;;;;;;6.55;2.92;;;;;;;;;;4641772;30;32357;-65
2021/10/21 12:08:08;;;;;;;7.28;3.08;;;;;;;;;;4640334;30;35615;-64
2021/10/21 12:10:39;;;;;;;5.75;2.90;;;;;;;;;;4636066;30;32375;-64
2021/10/21 12:13:07;;;;;;;4.50;2.80;;;;;;;;;;4643179;30;32493;-66
2021/10/21 12:15:41;;;;;;;3.85;2.67;;;;;;;;;;4645590;30;32289;-64
2021/10/21 12:18:12;;;;;;;6.43;3.42;;;;;;;;;;4637051;30;32350;-67
2021/10/21 12:20:42;;;;;;;4.35;2.83;;;;;;;;;;4645498;30;32379;-65
2021/10/21 12:23:31;;;;;;;9.27;3.58;;;;;;;;;;4632041;30;32879;-68
2021/10/21 12:26:00;;;;;;;4.07;2.78;;;;;;;;;;4640630;30;32467;-64
2021/10/21 12:28:45;;;;;;;5.05;3.38;;;;;;;;;;4636938;30;32466;-67
2021/10/21 12:31:18;;;;;;;4.60;2.95;;;;;;;;;;4634902;30;34215;-63
2021/10/21 12:33:59;;;;;;;5.13;3.45;;;;;;;;;;4641423;30;32351;-64
2021/10/21 12:36:26;;;;;;;;;;;;;;;;;;4640987;30;32353;-65
2021/10/21 12:38:53;;;;;;;5.85;3.00;;;;;;;;;;4645608;30;32503;-64
2021/10/21 12:41:21;;;;;;;5.55;3.05;;;;;;;;;;4641761;30;32151;-65
2021/10/21 12:44:05;;;;;;;6.20;3.47;;;;;;;;;;4639934;30;32421;-67
2021/10/21 12:46:33;;;;;;;5.50;3.10;;;;;;;;;;4645316;30;32438;-65
2021/10/21 12:49:12;;;;;;;7.10;2.83;;;;;;;;;;4636657;30;32400;-65
2021/10/21 12:51:41;;;;;;;5.68;3.63;;;;;;;;;;4637447;30;32488;-66
2021/10/21 12:54:09;;;;;;;6.25;3.63;;;;;;;;;;4643136;30;34114;-65
2021/10/21 12:56:39;;;;;;;5.68;3.28;;;;;;;;;;4642502;30;32595;-65
2021/10/21 12:59:07;;;;;;;7.82;3.72;;;;;;;;;;4652518;30;32522;-64
2021/10/21 13:01:59;;;;;;;5.35;3.15;;;;;;;;;;4644766;30;32284;-65
2021/10/21 13:04:44;;;;;;;6.00;3.80;;;;;;;;;;4634395;30;32435;-67
2021/10/21 13:07:13;;;;;;;4.88;3.50;;;;;;;;;;4635832;30;32712;-67
2021/10/21 13:09:41;;;;;;;6.57;4.13;;;;;;;;;;4618175;30;32587;-65
2021/10/21 13:12:08;;;;;;;5.82;3.40;;;;;;;;;;4621308;30;32531;-65
2021/10/21 13:14:38;;;;;;;8.18;3.83;;;;;;;;;;4633001;30;33297;-66
2021/10/21 13:17:07;;;;;;;6.90;4.18;;;;;;;;;;4634486;30;35205;-66
2021/10/21 13:19:36;;;;;;;7.88;3.92;;;;;;;;;;4634097;30;32527;-68
2021/10/21 13:22:02;;;;;;;8.85;4.13;;;;;;;;;;4635106;30;32325;-66
2021/10/21 13:24:29;;;;;;;7.25;3.92;;;;;;;;;;4636804;30;32428;-65
2021/10/21 13:26:56;;;;;;;5.85;3.85;;;;;;;;;;4638554;30;32286;-62
2021/10/21 13:29:23;;;;;;;5.95;4.05;;;;;;;;;;4634648;30;32323;-63
2021/10/21 13:31:49;;;;;;;7.40;3.75;;;;;;;;;;4639548;30;32341;-65
2021/10/21 13:34:17;;;;;;;6.20;4.18;;;;;;;;;;4620468;30;33087;-66
2021/10/21 13:36:44;;;;;;;6.90;4.07;;;;;;;;;;4634931;30;32200;-66
2021/10/21 13:39:11;;;;;;;6.30;4.25;;;;;;;;;;4635668;30;33912;-64
2021/10/21 13:41:38;;;;;;;7.18;4.05;;;;;;;;;;4631040;30;33141;-67
2021/10/21 13:44:05;;;;;;;6.45;4.10;;;;;;;;;;4628862;30;32378;-64
2021/10/21 13:46:32;;;;;;;6.82;4.40;;;;;;;;;;4634832;30;32601;-65
2021/10/21 13:48:59;;;;;;;7.72;4.35;;;;;;;;;;4633316;30;34077;-66
2021/10/21 13:51:27;;;;;;;6.53;4.10;;;;;;;;;;4628251;30;32585;-64
2021/10/21 13:53:54;;;;;;;8.77;4.78;;;;;;;;;;4630939;30;32496;-64
2021/10/21 13:56:21;;;;;;;7.88;4.63;;;;;;;;;;4631202;30;32460;-65
2021/10/21 13:58:48;;;;;;;7.00;4.35;;;;;;;;;;4631813;30;32733;-65
2021/10/21 14:01:19;;;;;;;;;;;;;;;;;;4632691;30;35415;-64
2021/10/21 14:03:46;;;;;;;7.35;4.35;;;;;;;;;;4631824;30;32446;-66
2021/10/21 14:06:12;;;;;;;11.30;4.30;;;;;;;;;;4630127;30;32757;-66
2021/10/21 14:08:40;;;;;;;10.23;4.90;;;;;;;;;;4628512;30;32459;-64
2021/10/21 14:11:08;;;;;;;8.02;4.53;;;;;;;;;;4610859;30;36361;-65
2021/10/21 14:13:35;;;;;;;11.32;4.82;;;;;;;;;;4619415;30;33097;-65
2021/10/21 14:16:02;;;;;;;8.40;4.40;;;;;;;;;;4627752;30;32689;-64
2021/10/21 14:18:29;;;;;;;9.25;4.22;;;;;;;;;;4630345;30;32456;-64
2021/10/21 14:20:56;;;;;;;9.75;4.53;;;;;;;;;;4630947;30;32543;-66
2021/10/21 14:23:22;;;;;;;7.28;3.75;;;;;;;;;;4631664;30;36925;-64
2021/10/21 14:25:50;;;;;;;8.93;4.78;;;;;;;;;;4627911;30;32522;-65
2021/10/21 14:28:18;;;;;;;8.82;4.03;;;;;;;;;;4634218;30;32436;-63
2021/10/21 14:30:45;;;;;;;8.48;4.95;;;;;;;;;;4630232;30;32627;-62
2021/10/21 14:33:11;;;;;;;6.97;4.10;;;;;;;;;;4631925;30;34289;-66
2021/10/21 14:35:38;;;;;;;9.20;4.88;;;;;;;;;;4630840;30;32506;-66
2021/10/21 14:38:05;;;;;;;6.85;4.15;;;;;;;;;;4631698;30;32490;-64
2021/10/21 14:40:31;;;;;;;8.40;4.65;;;;;;;;;;4631423;30;32550;-63
2021/10/21 14:43:00;;;;;;;7.97;4.38;;;;;;;;;;4629964;30;32666;-64
2021/10/21 14:45:26;;;;;;;7.57;4.43;;;;;;;;;;4629993;30;34240;-65
2021/10/21 14:47:53;;;;;;;10.68;5.15;;;;;;;;;;4630561;30;33004;-65
2021/10/21 14:50:20;;;;;;;10.70;4.75;;;;;;;;;;4630150;30;32499;-65
2021/10/21 14:52:46;;;;;;;7.25;4.03;;;;;;;;;;4631208;30;32782;-63
2021/10/21 14:55:13;;;;;;;9.25;4.68;;;;;;;;;;4631667;30;35579;-64
2021/10/21 14:57:40;;;;;;;10.52;5.15;;;;;;;;;;4631687;30;32543;-63
2021/10/21 15:00:09;;;;;;;9.75;5.05;;;;;;;;;;4630816;30;32434;-65
2021/10/21 15:02:36;;;;;;;11.65;4.72;;;;;;;;;;4630795;30;32835;-67